EGTE Airport Information

Runway Information
Runway 08 Length 6834 ft width 151 ft
Elevation 99 ft Threshold 33 ft Heading 76
Runway 26 Length 6834 ft Width 151 ft
Elevation 102 ft Threshold 117 ft Heading 256
Runway 13 Length 4393 ft width 151 ft
Elevation 76 ft Threshold 446 ft Heading 120
Runway 31 Length 4393 ft Width 151 ft
Elevation 98 ft Threshold ft Heading 300
Airport Frequencies
Type APP Name APP Frequency 128.975 MHZ
Type ATIS Name ATIS Frequency 119.325 MHZ
Type Radar Name EXETER Rad Frequency 123.57 MHZ
Type TWR Name TWR Frequency 119.8 MHZ
Airport Navaids
Airport Weather Information & NOTAM
ADDS - METARS form results

(2114 UTC 10 August 2022)
Data provider http://aviationweather.gov/metar/data/
 
METAR text: EGTE 102050Z 07003KT CAVOK 20/13 Q1022
Conditions at: EGTE (EXETER AIRPORT , GB) observed 2050 UTC 10 August 2022
Temperature: 20.0°C (68°F)
Dewpoint: 13.0°C (55°F) [RH = 64%]
Pressure (altimeter): 30.18 inches Hg (1022.0 mb)
Winds: from the ENE (70 degrees) at 3 MPH (3 knots; 1.5 m/s)
Visibility: 6 or more miles (10+ km)
Ceiling: ceiling and visibility are OK
Clouds: unknown
Weather: no significant weather observed at this time

METAR text: EGTE 102020Z 00000KT CAVOK 22/13 Q1022
Conditions at: EGTE (EXETER AIRPORT , GB) observed 2020 UTC 10 August 2022
Temperature: 22.0°C (72°F)
Dewpoint: 13.0°C (55°F) [RH = 57%]
Pressure (altimeter): 30.18 inches Hg (1022.0 mb)
Winds: calm
Visibility: 6 or more miles (10+ km)
Ceiling: ceiling and visibility are OK
Clouds: unknown
Weather: no significant weather observed at this time

Forecast for: EGTE (EXETER AIRPORT , GB)
Text: TAF EGTE 101955Z 1021/1106 VRB03KT CAVOK
Forecast period: 2100 UTC 10 August 2022 to 0600 UTC 11 August 2022
Forecast type: FROM: standard forecast or significant change
Winds: variable direction winds at 3 MPH (3 knots; 1.5 m/s)
Visibility: 6 or more miles (10+ km)
Ceiling: unknown
Clouds: missing
Weather: NSW  (no significant weather)
Text: PROB30 1101/1106 9000
Forecast period: 0100 to 0600 UTC 11 August 2022
Forecast type: PROBABLE: 30 percent likelihood of the following during this time
Visibility: 6 miles (9 km)
Ceiling: unknown
Clouds: missing
Weather: no significant weather forecast for this period